Estación Meteorológica Peña el Pijo (Robertgarden) [ 12/09/19 16:24:21 CET ]

Fecha Hora Presion(HPa) Temp (°C) Humedad % Rocio (°C) Viento ( m/s) Direccion Lluvia 1Hora(mm) Lluvia 24H(mm) LLuvia Total(mm)
2019-Sep-15 01:01:36 1013.300 16.1 93 15.0         482.48
2019-Sep-15 02:01:45 1012.900 15.9 93 14.8         482.48
2019-Sep-15 03:04:04 1012.600 15.9 93 14.8         482.48
2019-Sep-15 04:10:09 1012.400 15.8 94 14.8         482.48
2019-Sep-15 05:10:08 1011.700 15.8 94 14.8         482.48
2019-Sep-15 06:01:52 1011.500 15.9 94 14.9         482.48
2019-Sep-15 07:01:26 1011.200 15.8 94 14.8         482.48
2019-Sep-15 08:01:49 1011.600 15.8 94 14.8         482.48
2019-Sep-15 09:01:46 1011.800 15.9 94 14.9         482.48
2019-Sep-15 10:01:26 1012.200 17.4 94 16.4         482.48
2019-Sep-15 11:01:48 1012.700 18.9 94 17.9         482.48
2019-Sep-15 12:02:03 1012.400 22.5 84 19.7         482.48
2019-Sep-15 13:01:42 1012.100 23.5 74 18.6 0.5 SW     482.48
2019-Sep-15 14:01:48 1011.800 25.3 65 18.2 0.9 SW     482.48
2019-Sep-15 15:01:40 1011.300 26.3 62 18.4 0.4 SW     482.48
2019-Sep-15 16:01:40 1011.000 24.4 66 17.6         482.48
2019-Sep-15 17:01:56 1010.600 26.2 61 18.1         482.48
2019-Sep-15 18:01:51 1010.400 25.6 61 17.5         482.48
2019-Sep-15 19:01:41 1010.400 22.1 69 16.1         482.48
2019-Sep-15 20:01:45 1011.200 20.4 74 15.6         482.48
2019-Sep-15 21:01:35 1011.500 19.4 80 15.9         482.48
2019-Sep-15 22:01:54 1012.300 18.4 83 15.4         482.48
2019-Sep-15 23:01:51 1012.500 18.1 85 15.5         482.48

Temperatura Máxima:26°    Temperatura Mínima:15°
Presión Máxima:1013.300 Hpa    Presión Mínima:1010.400 Hpa


Volver